sensor_id;sensor_type;location;lat;lon;timestamp;temperature;humidity
38241;DHT22;24037;49.536;8.500;2023-07-20T00:02:04;20.10;1.00
38241;DHT22;24037;49.536;8.500;2023-07-20T00:04:31;20.00;1.00
38241;DHT22;24037;49.536;8.500;2023-07-20T00:06:58;20.00;1.00
38241;DHT22;24037;49.536;8.500;2023-07-20T00:09:26;20.00;1.00
38241;DHT22;24037;49.536;8.500;2023-07-20T00:11:53;20.00;1.00
38241;DHT22;24037;49.536;8.500;2023-07-20T00:14:19;19.90;1.00
38241;DHT22;24037;49.536;8.500;2023-07-20T00:16:46;19.90;1.00
38241;DHT22;24037;49.536;8.500;2023-07-20T00:19:13;19.90;1.00
38241;DHT22;24037;49.536;8.500;2023-07-20T00:21:39;19.90;1.00
38241;DHT22;24037;49.536;8.500;2023-07-20T00:24:06;19.80;1.00
38241;DHT22;24037;49.536;8.500;2023-07-20T00:26:32;19.80;1.00
38241;DHT22;24037;49.536;8.500;2023-07-20T00:28:58;19.70;1.00
38241;DHT22;24037;49.536;8.500;2023-07-20T00:31:25;19.70;1.00
38241;DHT22;24037;49.536;8.500;2023-07-20T00:33:51;19.70;1.00
38241;DHT22;24037;49.536;8.500;2023-07-20T00:36:19;19.60;1.00
38241;DHT22;24037;49.536;8.500;2023-07-20T00:38:45;19.60;1.00
38241;DHT22;24037;49.536;8.500;2023-07-20T00:41:11;19.60;1.00
38241;DHT22;24037;49.536;8.500;2023-07-20T00:43:40;19.50;1.00
38241;DHT22;24037;49.536;8.500;2023-07-20T00:46:07;19.50;1.00
38241;DHT22;24037;49.536;8.500;2023-07-20T00:48:34;19.40;1.00
38241;DHT22;24037;49.536;8.500;2023-07-20T00:51:00;19.40;1.00
38241;DHT22;24037;49.536;8.500;2023-07-20T00:53:28;19.30;1.00
38241;DHT22;24037;49.536;8.500;2023-07-20T00:55:54;19.20;1.00
38241;DHT22;24037;49.536;8.500;2023-07-20T00:58:21;19.10;1.00
38241;DHT22;24037;49.536;8.500;2023-07-20T01:00:47;19.10;1.00
38241;DHT22;24037;49.536;8.500;2023-07-20T01:03:13;19.00;1.00
38241;DHT22;24037;49.536;8.500;2023-07-20T01:05:48;19.00;1.00
38241;DHT22;24037;49.536;8.500;2023-07-20T01:11:32;18.80;1.00
38241;DHT22;24037;49.536;8.500;2023-07-20T01:14:00;18.80;1.00
38241;DHT22;24037;49.536;8.500;2023-07-20T01:16:27;18.70;1.00
38241;DHT22;24037;49.536;8.500;2023-07-20T01:18:54;18.60;1.00
38241;DHT22;24037;49.536;8.500;2023-07-20T01:21:39;18.60;1.00
38241;DHT22;24037;49.536;8.500;2023-07-20T01:32:43;18.60;1.00
38241;DHT22;24037;49.536;8.500;2023-07-20T01:35:12;18.60;1.00
38241;DHT22;24037;49.536;8.500;2023-07-20T01:37:42;18.50;1.00
38241;DHT22;24037;49.536;8.500;2023-07-20T01:40:10;18.50;1.90
38241;DHT22;24037;49.536;8.500;2023-07-20T01:42:37;18.50;1.00
38241;DHT22;24037;49.536;8.500;2023-07-20T01:45:04;18.50;3.20
38241;DHT22;24037;49.536;8.500;2023-07-20T01:47:30;18.40;7.90
38241;DHT22;24037;49.536;8.500;2023-07-20T01:49:56;18.40;2.80
38241;DHT22;24037;49.536;8.500;2023-07-20T01:52:24;18.30;12.10
38241;DHT22;24037;49.536;8.500;2023-07-20T01:54:51;18.20;19.50
38241;DHT22;24037;49.536;8.500;2023-07-20T01:57:17;18.10;38.70
38241;DHT22;24037;49.536;8.500;2023-07-20T01:59:43;18.00;55.00
38241;DHT22;24037;49.536;8.500;2023-07-20T02:02:09;18.00;64.70
38241;DHT22;24037;49.536;8.500;2023-07-20T02:04:35;18.10;55.10
38241;DHT22;24037;49.536;8.500;2023-07-20T02:07:02;18.00;66.30
38241;DHT22;24037;49.536;8.500;2023-07-20T02:09:28;18.00;56.30
38241;DHT22;24037;49.536;8.500;2023-07-20T02:11:54;18.00;55.20
38241;DHT22;24037;49.536;8.500;2023-07-20T02:14:20;17.90;56.10
38241;DHT22;24037;49.536;8.500;2023-07-20T02:16:48;17.80;68.40
38241;DHT22;24037;49.536;8.500;2023-07-20T02:19:20;17.60;90.50
38241;DHT22;24037;49.536;8.500;2023-07-20T02:21:47;17.50;98.00
38241;DHT22;24037;49.536;8.500;2023-07-20T02:24:13;17.40;99.90
38241;DHT22;24037;49.536;8.500;2023-07-20T02:26:42;17.40;99.90
38241;DHT22;24037;49.536;8.500;2023-07-20T02:29:08;17.30;99.90
38241;DHT22;24037;49.536;8.500;2023-07-20T02:31:38;17.30;99.90
38241;DHT22;24037;49.536;8.500;2023-07-20T02:34:06;17.20;99.90
38241;DHT22;24037;49.536;8.500;2023-07-20T02:36:32;17.20;99.90
38241;DHT22;24037;49.536;8.500;2023-07-20T02:38:58;17.00;99.90
38241;DHT22;24037;49.536;8.500;2023-07-20T02:41:25;16.90;99.90
38241;DHT22;24037;49.536;8.500;2023-07-20T02:43:51;16.80;99.90
38241;DHT22;24037;49.536;8.500;2023-07-20T02:46:17;16.70;99.90
38241;DHT22;24037;49.536;8.500;2023-07-20T02:48:43;16.60;99.90
38241;DHT22;24037;49.536;8.500;2023-07-20T02:51:09;16.50;99.90
38241;DHT22;24037;49.536;8.500;2023-07-20T02:53:37;16.40;99.90
38241;DHT22;24037;49.536;8.500;2023-07-20T02:56:03;16.40;99.90
38241;DHT22;24037;49.536;8.500;2023-07-20T02:58:30;16.20;99.90
38241;DHT22;24037;49.536;8.500;2023-07-20T03:00:56;16.20;99.90
38241;DHT22;24037;49.536;8.500;2023-07-20T03:03:22;16.10;99.90
38241;DHT22;24037;49.536;8.500;2023-07-20T03:05:48;16.10;99.90
38241;DHT22;24037;49.536;8.500;2023-07-20T03:08:20;16.00;99.90
38241;DHT22;24037;49.536;8.500;2023-07-20T03:10:46;15.90;99.90
38241;DHT22;24037;49.536;8.500;2023-07-20T03:13:12;15.80;99.90
38241;DHT22;24037;49.536;8.500;2023-07-20T03:15:40;15.70;99.90
38241;DHT22;24037;49.536;8.500;2023-07-20T03:18:06;15.70;99.90
38241;DHT22;24037;49.536;8.500;2023-07-20T03:20:32;15.50;99.90
38241;DHT22;24037;49.536;8.500;2023-07-20T03:23:01;15.50;99.90
38241;DHT22;24037;49.536;8.500;2023-07-20T03:25:27;15.50;99.90
38241;DHT22;24037;49.536;8.500;2023-07-20T03:27:53;15.60;99.90
38241;DHT22;24037;49.536;8.500;2023-07-20T03:30:20;15.60;99.90
38241;DHT22;24037;49.536;8.500;2023-07-20T03:32:46;15.60;99.90
38241;DHT22;24037;49.536;8.500;2023-07-20T03:35:12;15.40;99.90
38241;DHT22;24037;49.536;8.500;2023-07-20T03:37:39;15.40;99.90
38241;DHT22;24037;49.536;8.500;2023-07-20T03:40:05;15.30;99.90
38241;DHT22;24037;49.536;8.500;2023-07-20T03:42:33;15.30;99.90
38241;DHT22;24037;49.536;8.500;2023-07-20T03:44:59;15.20;99.90
38241;DHT22;24037;49.536;8.500;2023-07-20T03:47:25;15.20;99.90
38241;DHT22;24037;49.536;8.500;2023-07-20T03:49:52;15.20;99.90
38241;DHT22;24037;49.536;8.500;2023-07-20T03:52:18;15.20;99.90
38241;DHT22;24037;49.536;8.500;2023-07-20T03:54:44;15.20;99.90
38241;DHT22;24037;49.536;8.500;2023-07-20T03:57:11;15.20;99.90
38241;DHT22;24037;49.536;8.500;2023-07-20T03:59:38;15.50;99.90
38241;DHT22;24037;49.536;8.500;2023-07-20T04:02:05;15.70;99.90
38241;DHT22;24037;49.536;8.500;2023-07-20T04:04:31;16.00;99.90
38241;DHT22;24037;49.536;8.500;2023-07-20T04:06:57;16.20;99.90
38241;DHT22;24037;49.536;8.500;2023-07-20T04:09:23;16.40;99.90
38241;DHT22;24037;49.536;8.500;2023-07-20T04:11:50;16.40;99.90
38241;DHT22;24037;49.536;8.500;2023-07-20T04:14:16;16.40;99.90
38241;DHT22;24037;49.536;8.500;2023-07-20T04:16:42;16.40;99.90
38241;DHT22;24037;49.536;8.500;2023-07-20T04:19:09;16.40;99.90
38241;DHT22;24037;49.536;8.500;2023-07-20T04:21:40;16.40;99.90
38241;DHT22;24037;49.536;8.500;2023-07-20T04:24:07;16.40;99.90
38241;DHT22;24037;49.536;8.500;2023-07-20T04:26:33;16.50;99.90
38241;DHT22;24037;49.536;8.500;2023-07-20T04:28:59;16.50;99.90
38241;DHT22;24037;49.536;8.500;2023-07-20T04:31:35;16.70;99.90
38241;DHT22;24037;49.536;8.500;2023-07-20T04:34:03;16.80;99.90
38241;DHT22;24037;49.536;8.500;2023-07-20T04:36:29;16.80;99.90
38241;DHT22;24037;49.536;8.500;2023-07-20T04:38:56;16.90;99.90
38241;DHT22;24037;49.536;8.500;2023-07-20T04:41:23;16.80;99.90
38241;DHT22;24037;49.536;8.500;2023-07-20T04:43:52;16.70;99.90
38241;DHT22;24037;49.536;8.500;2023-07-20T04:46:25;16.60;99.90
38241;DHT22;24037;49.536;8.500;2023-07-20T04:48:51;16.60;99.90
38241;DHT22;24037;49.536;8.500;2023-07-20T04:51:18;16.60;99.90
38241;DHT22;24037;49.536;8.500;2023-07-20T04:53:48;16.60;99.90
38241;DHT22;24037;49.536;8.500;2023-07-20T04:56:15;16.60;99.90
38241;DHT22;24037;49.536;8.500;2023-07-20T04:58:41;16.50;99.90
38241;DHT22;24037;49.536;8.500;2023-07-20T05:01:08;16.50;99.90
38241;DHT22;24037;49.536;8.500;2023-07-20T05:03:35;16.40;99.90
38241;DHT22;24037;49.536;8.500;2023-07-20T05:06:02;16.40;99.90
38241;DHT22;24037;49.536;8.500;2023-07-20T05:08:28;16.40;99.90
38241;DHT22;24037;49.536;8.500;2023-07-20T05:10:54;16.40;99.90
38241;DHT22;24037;49.536;8.500;2023-07-20T05:13:21;16.40;99.90
38241;DHT22;24037;49.536;8.500;2023-07-20T05:15:51;16.50;99.90
38241;DHT22;24037;49.536;8.500;2023-07-20T05:18:19;16.60;99.90
38241;DHT22;24037;49.536;8.500;2023-07-20T05:20:47;16.80;99.90
38241;DHT22;24037;49.536;8.500;2023-07-20T05:23:17;17.00;99.90
38241;DHT22;24037;49.536;8.500;2023-07-20T05:25:43;17.00;99.90
38241;DHT22;24037;49.536;8.500;2023-07-20T05:28:10;17.10;99.90
38241;DHT22;24037;49.536;8.500;2023-07-20T05:30:36;17.20;99.90
38241;DHT22;24037;49.536;8.500;2023-07-20T05:33:02;17.30;99.90
38241;DHT22;24037;49.536;8.500;2023-07-20T05:35:28;17.40;99.90
38241;DHT22;24037;49.536;8.500;2023-07-20T05:37:55;17.60;99.90
38241;DHT22;24037;49.536;8.500;2023-07-20T05:40:21;17.60;99.90
38241;DHT22;24037;49.536;8.500;2023-07-20T05:42:48;17.70;99.90
38241;DHT22;24037;49.536;8.500;2023-07-20T05:45:15;17.80;99.90
38241;DHT22;24037;49.536;8.500;2023-07-20T05:47:42;17.90;99.90
38241;DHT22;24037;49.536;8.500;2023-07-20T05:50:09;18.00;99.90
38241;DHT22;24037;49.536;8.500;2023-07-20T05:52:35;18.20;99.90
38241;DHT22;24037;49.536;8.500;2023-07-20T05:55:01;18.30;99.90
38241;DHT22;24037;49.536;8.500;2023-07-20T05:57:27;18.40;99.90
38241;DHT22;24037;49.536;8.500;2023-07-20T05:59:54;18.50;99.90
38241;DHT22;24037;49.536;8.500;2023-07-20T06:02:20;18.70;99.90
38241;DHT22;24037;49.536;8.500;2023-07-20T06:04:47;18.90;99.90
38241;DHT22;24037;49.536;8.500;2023-07-20T06:07:13;19.00;99.90
38241;DHT22;24037;49.536;8.500;2023-07-20T06:09:40;19.10;99.90
38241;DHT22;24037;49.536;8.500;2023-07-20T06:12:06;19.30;99.90
38241;DHT22;24037;49.536;8.500;2023-07-20T06:14:33;19.40;73.90
38241;DHT22;24037;49.536;8.500;2023-07-20T06:16:59;19.40;76.00
38241;DHT22;24037;49.536;8.500;2023-07-20T06:19:25;20.10;87.60
38241;DHT22;24037;49.536;8.500;2023-07-20T06:21:51;21.00;10.30
38241;DHT22;24037;49.536;8.500;2023-07-20T06:24:17;21.70;1.00
38241;DHT22;24037;49.536;8.500;2023-07-20T06:26:44;22.30;1.00
38241;DHT22;24037;49.536;8.500;2023-07-20T06:29:10;22.70;1.00
38241;DHT22;24037;49.536;8.500;2023-07-20T06:31:37;22.90;1.00
38241;DHT22;24037;49.536;8.500;2023-07-20T06:34:03;22.90;99.90
38241;DHT22;24037;49.536;8.500;2023-07-20T06:36:29;23.20;1.00
38241;DHT22;24037;49.536;8.500;2023-07-20T06:38:56;23.70;99.90
38241;DHT22;24037;49.536;8.500;2023-07-20T06:41:22;23.60;99.90
38241;DHT22;24037;49.536;8.500;2023-07-20T06:43:49;22.90;99.90
38241;DHT22;24037;49.536;8.500;2023-07-20T06:46:15;22.20;1.00
38241;DHT22;24037;49.536;8.500;2023-07-20T06:48:41;21.90;1.00
38241;DHT22;24037;49.536;8.500;2023-07-20T06:51:08;22.30;1.00
38241;DHT22;24037;49.536;8.500;2023-07-20T06:53:34;22.40;1.00
38241;DHT22;24037;49.536;8.500;2023-07-20T06:56:00;22.60;99.90
38241;DHT22;24037;49.536;8.500;2023-07-20T06:58:26;23.20;99.90
38241;DHT22;24037;49.536;8.500;2023-07-20T07:00:52;23.80;99.90
38241;DHT22;24037;49.536;8.500;2023-07-20T07:03:18;23.60;99.90
38241;DHT22;24037;49.536;8.500;2023-07-20T07:05:45;24.00;99.90
38241;DHT22;24037;49.536;8.500;2023-07-20T07:08:11;23.90;99.90
38241;DHT22;24037;49.536;8.500;2023-07-20T07:10:38;23.20;99.90
38241;DHT22;24037;49.536;8.500;2023-07-20T07:13:05;23.20;99.90
38241;DHT22;24037;49.536;8.500;2023-07-20T07:15:31;22.40;99.90
38241;DHT22;24037;49.536;8.500;2023-07-20T07:17:58;21.80;99.90
38241;DHT22;24037;49.536;8.500;2023-07-20T07:20:26;21.40;1.00
38241;DHT22;24037;49.536;8.500;2023-07-20T07:22:52;20.90;1.00
38241;DHT22;24037;49.536;8.500;2023-07-20T07:25:18;20.80;1.00
38241;DHT22;24037;49.536;8.500;2023-07-20T07:27:47;20.60;1.00
38241;DHT22;24037;49.536;8.500;2023-07-20T07:30:14;20.40;1.00
38241;DHT22;24037;49.536;8.500;2023-07-20T07:32:40;20.40;1.00
38241;DHT22;24037;49.536;8.500;2023-07-20T07:35:07;20.40;1.00
38241;DHT22;24037;49.536;8.500;2023-07-20T07:37:33;20.40;1.00
38241;DHT22;24037;49.536;8.500;2023-07-20T07:39:59;20.40;1.00
38241;DHT22;24037;49.536;8.500;2023-07-20T07:42:25;20.50;1.00
38241;DHT22;24037;49.536;8.500;2023-07-20T07:44:52;21.00;1.00
38241;DHT22;24037;49.536;8.500;2023-07-20T07:47:18;21.70;1.00
38241;DHT22;24037;49.536;8.500;2023-07-20T07:49:44;22.20;99.90
38241;DHT22;24037;49.536;8.500;2023-07-20T07:52:10;22.30;99.90
38241;DHT22;24037;49.536;8.500;2023-07-20T07:54:36;22.20;99.90
38241;DHT22;24037;49.536;8.500;2023-07-20T07:57:02;21.70;99.90
38241;DHT22;24037;49.536;8.500;2023-07-20T07:59:29;21.20;1.00
38241;DHT22;24037;49.536;8.500;2023-07-20T08:01:57;21.00;1.00
38241;DHT22;24037;49.536;8.500;2023-07-20T08:04:24;20.70;1.00
38241;DHT22;24037;49.536;8.500;2023-07-20T08:06:50;20.50;1.00
38241;DHT22;24037;49.536;8.500;2023-07-20T08:09:16;20.70;1.00
38241;DHT22;24037;49.536;8.500;2023-07-20T08:11:43;21.40;1.00
38241;DHT22;24037;49.536;8.500;2023-07-20T08:14:09;22.10;1.00
38241;DHT22;24037;49.536;8.500;2023-07-20T08:16:35;22.30;99.90
38241;DHT22;24037;49.536;8.500;2023-07-20T08:19:01;22.60;99.90
38241;DHT22;24037;49.536;8.500;2023-07-20T08:21:28;23.00;99.90
38241;DHT22;24037;49.536;8.500;2023-07-20T08:23:54;23.00;99.90
38241;DHT22;24037;49.536;8.500;2023-07-20T08:26:20;22.80;99.90
38241;DHT22;24037;49.536;8.500;2023-07-20T08:28:48;22.30;99.90
38241;DHT22;24037;49.536;8.500;2023-07-20T08:31:14;22.60;99.90
38241;DHT22;24037;49.536;8.500;2023-07-20T08:33:40;23.10;99.90
38241;DHT22;24037;49.536;8.500;2023-07-20T08:36:06;23.20;99.90
38241;DHT22;24037;49.536;8.500;2023-07-20T08:38:33;22.70;99.90
38241;DHT22;24037;49.536;8.500;2023-07-20T08:40:59;22.80;99.90
38241;DHT22;24037;49.536;8.500;2023-07-20T08:43:27;23.80;99.90
38241;DHT22;24037;49.536;8.500;2023-07-20T08:45:55;24.20;99.90
38241;DHT22;24037;49.536;8.500;2023-07-20T08:48:24;23.90;99.90
38241;DHT22;24037;49.536;8.500;2023-07-20T08:50:52;23.40;99.90
38241;DHT22;24037;49.536;8.500;2023-07-20T08:53:20;23.70;99.90
38241;DHT22;24037;49.536;8.500;2023-07-20T08:55:49;23.50;99.90
38241;DHT22;24037;49.536;8.500;2023-07-20T08:58:18;23.30;99.90
38241;DHT22;24037;49.536;8.500;2023-07-20T09:00:44;23.10;99.90
38241;DHT22;24037;49.536;8.500;2023-07-20T09:03:11;22.80;99.90
38241;DHT22;24037;49.536;8.500;2023-07-20T09:05:37;22.60;99.90
38241;DHT22;24037;49.536;8.500;2023-07-20T09:08:07;22.50;99.90
38241;DHT22;24037;49.536;8.500;2023-07-20T09:10:33;22.90;99.90
38241;DHT22;24037;49.536;8.500;2023-07-20T09:12:59;23.60;99.90
38241;DHT22;24037;49.536;8.500;2023-07-20T09:15:25;23.60;99.90
38241;DHT22;24037;49.536;8.500;2023-07-20T09:17:52;22.90;99.90
38241;DHT22;24037;49.536;8.500;2023-07-20T09:20:20;22.60;99.90
38241;DHT22;24037;49.536;8.500;2023-07-20T09:22:46;22.50;99.90
38241;DHT22;24037;49.536;8.500;2023-07-20T09:25:14;22.60;99.90
38241;DHT22;24037;49.536;8.500;2023-07-20T09:27:48;22.80;99.90
38241;DHT22;24037;49.536;8.500;2023-07-20T09:30:15;23.20;99.90
38241;DHT22;24037;49.536;8.500;2023-07-20T09:32:44;23.60;99.90
38241;DHT22;24037;49.536;8.500;2023-07-20T09:35:21;23.70;99.90
38241;DHT22;24037;49.536;8.500;2023-07-20T09:37:50;24.10;99.90
38241;DHT22;24037;49.536;8.500;2023-07-20T09:40:20;24.70;99.90
38241;DHT22;24037;49.536;8.500;2023-07-20T09:42:47;24.70;99.90
38241;DHT22;24037;49.536;8.500;2023-07-20T09:45:14;25.30;99.90
38241;DHT22;24037;49.536;8.500;2023-07-20T09:47:40;23.90;99.90
38241;DHT22;24037;49.536;8.500;2023-07-20T09:50:08;23.30;99.90
38241;DHT22;24037;49.536;8.500;2023-07-20T09:52:39;22.90;99.90
38241;DHT22;24037;49.536;8.500;2023-07-20T09:55:07;22.60;99.90
38241;DHT22;24037;49.536;8.500;2023-07-20T09:57:34;22.40;99.90
38241;DHT22;24037;49.536;8.500;2023-07-20T10:00:06;22.90;99.90
38241;DHT22;24037;49.536;8.500;2023-07-20T10:02:41;23.30;99.90
38241;DHT22;24037;49.536;8.500;2023-07-20T10:05:10;23.90;99.90
38241;DHT22;24037;49.536;8.500;2023-07-20T10:07:43;24.20;99.90
38241;DHT22;24037;49.536;8.500;2023-07-20T10:10:10;24.20;99.90
38241;DHT22;24037;49.536;8.500;2023-07-20T10:12:37;24.30;99.90
38241;DHT22;24037;49.536;8.500;2023-07-20T10:15:19;24.80;99.90
38241;DHT22;24037;49.536;8.500;2023-07-20T10:18:25;24.70;99.90
38241;DHT22;24037;49.536;8.500;2023-07-20T10:20:42;24.70;99.90
38241;DHT22;24037;49.536;8.500;2023-07-20T10:23:12;25.10;99.90
38241;DHT22;24037;49.536;8.500;2023-07-20T10:25:38;25.40;99.90
38241;DHT22;24037;49.536;8.500;2023-07-20T10:28:07;25.50;99.90
38241;DHT22;24037;49.536;8.500;2023-07-20T10:30:34;25.60;99.90
38241;DHT22;24037;49.536;8.500;2023-07-20T10:33:04;25.80;99.90
38241;DHT22;24037;49.536;8.500;2023-07-20T10:35:50;25.50;99.90
38241;DHT22;24037;49.536;8.500;2023-07-20T10:38:17;25.60;99.90
38241;DHT22;24037;49.536;8.500;2023-07-20T10:40:54;26.00;99.90
38241;DHT22;24037;49.536;8.500;2023-07-20T10:43:20;26.40;99.90
38241;DHT22;24037;49.536;8.500;2023-07-20T10:45:53;26.40;99.90
38241;DHT22;24037;49.536;8.500;2023-07-20T10:48:24;26.10;99.90
38241;DHT22;24037;49.536;8.500;2023-07-20T10:53:36;26.00;99.90
38241;DHT22;24037;49.536;8.500;2023-07-20T10:56:07;26.60;99.90
38241;DHT22;24037;49.536;8.500;2023-07-20T10:58:34;25.80;99.90
38241;DHT22;24037;49.536;8.500;2023-07-20T11:01:03;25.20;99.90
38241;DHT22;24037;49.536;8.500;2023-07-20T11:03:33;24.90;99.90
38241;DHT22;24037;49.536;8.500;2023-07-20T11:05:59;24.50;99.90
38241;DHT22;24037;49.536;8.500;2023-07-20T11:08:39;24.70;99.90
38241;DHT22;24037;49.536;8.500;2023-07-20T11:11:29;25.30;99.90
38241;DHT22;24037;49.536;8.500;2023-07-20T11:13:59;25.30;99.90
38241;DHT22;24037;49.536;8.500;2023-07-20T11:16:43;25.10;99.90
38241;DHT22;24037;49.536;8.500;2023-07-20T11:19:21;25.40;99.90
38241;DHT22;24037;49.536;8.500;2023-07-20T11:21:51;25.80;99.90
38241;DHT22;24037;49.536;8.500;2023-07-20T11:24:17;26.30;99.90
38241;DHT22;24037;49.536;8.500;2023-07-20T11:26:49;26.20;99.90
38241;DHT22;24037;49.536;8.500;2023-07-20T11:29:16;26.20;99.90
38241;DHT22;24037;49.536;8.500;2023-07-20T11:31:44;26.10;99.90
38241;DHT22;24037;49.536;8.500;2023-07-20T11:34:13;25.40;99.90
38241;DHT22;24037;49.536;8.500;2023-07-20T11:36:50;25.60;99.90
38241;DHT22;24037;49.536;8.500;2023-07-20T11:39:17;25.90;99.90
38241;DHT22;24037;49.536;8.500;2023-07-20T11:41:48;25.50;99.90
38241;DHT22;24037;49.536;8.500;2023-07-20T11:44:19;26.10;99.90
38241;DHT22;24037;49.536;8.500;2023-07-20T11:49:37;26.50;99.90
38241;DHT22;24037;49.536;8.500;2023-07-20T11:52:06;26.60;99.90
38241;DHT22;24037;49.536;8.500;2023-07-20T11:54:34;25.70;99.90
38241;DHT22;24037;49.536;8.500;2023-07-20T11:57:01;25.20;99.90
38241;DHT22;24037;49.536;8.500;2023-07-20T11:59:27;24.90;99.90
38241;DHT22;24037;49.536;8.500;2023-07-20T12:01:54;24.80;99.90
38241;DHT22;24037;49.536;8.500;2023-07-20T12:04:22;24.80;99.90
38241;DHT22;24037;49.536;8.500;2023-07-20T12:06:48;24.60;99.90
38241;DHT22;24037;49.536;8.500;2023-07-20T12:09:16;24.30;99.90
38241;DHT22;24037;49.536;8.500;2023-07-20T12:11:44;24.50;99.90
38241;DHT22;24037;49.536;8.500;2023-07-20T12:14:13;24.50;99.90
38241;DHT22;24037;49.536;8.500;2023-07-20T12:16:39;24.70;99.90
38241;DHT22;24037;49.536;8.500;2023-07-20T12:19:07;24.90;99.90
38241;DHT22;24037;49.536;8.500;2023-07-20T12:21:35;25.00;99.90
38241;DHT22;24037;49.536;8.500;2023-07-20T12:24:03;24.90;99.90
38241;DHT22;24037;49.536;8.500;2023-07-20T12:26:31;24.60;99.90
38241;DHT22;24037;49.536;8.500;2023-07-20T12:28:57;24.60;99.90
38241;DHT22;24037;49.536;8.500;2023-07-20T12:31:25;24.90;99.90
38241;DHT22;24037;49.536;8.500;2023-07-20T12:33:52;24.80;99.90
38241;DHT22;24037;49.536;8.500;2023-07-20T12:36:19;24.60;99.90
38241;DHT22;24037;49.536;8.500;2023-07-20T12:38:45;24.50;99.90
38241;DHT22;24037;49.536;8.500;2023-07-20T12:41:15;24.50;99.90
38241;DHT22;24037;49.536;8.500;2023-07-20T12:43:42;24.40;99.90
38241;DHT22;24037;49.536;8.500;2023-07-20T12:46:10;24.50;99.90
38241;DHT22;24037;49.536;8.500;2023-07-20T12:48:38;24.70;99.90
38241;DHT22;24037;49.536;8.500;2023-07-20T12:51:06;25.20;99.90
38241;DHT22;24037;49.536;8.500;2023-07-20T12:53:32;25.50;99.90
38241;DHT22;24037;49.536;8.500;2023-07-20T12:55:59;25.80;99.90
38241;DHT22;24037;49.536;8.500;2023-07-20T12:58:26;26.10;99.90
38241;DHT22;24037;49.536;8.500;2023-07-20T13:00:53;26.60;99.90
38241;DHT22;24037;49.536;8.500;2023-07-20T13:03:19;26.60;99.90
38241;DHT22;24037;49.536;8.500;2023-07-20T13:05:46;26.50;99.90
38241;DHT22;24037;49.536;8.500;2023-07-20T13:08:13;26.80;99.90
38241;DHT22;24037;49.536;8.500;2023-07-20T13:10:39;27.30;99.90
38241;DHT22;24037;49.536;8.500;2023-07-20T13:13:05;27.40;99.90
38241;DHT22;24037;49.536;8.500;2023-07-20T13:15:35;27.20;99.90
38241;DHT22;24037;49.536;8.500;2023-07-20T13:18:06;27.10;99.90
38241;DHT22;24037;49.536;8.500;2023-07-20T13:20:32;26.90;99.90
38241;DHT22;24037;49.536;8.500;2023-07-20T13:22:58;26.00;99.90
38241;DHT22;24037;49.536;8.500;2023-07-20T13:25:25;25.90;99.90
38241;DHT22;24037;49.536;8.500;2023-07-20T13:27:51;26.60;99.90
38241;DHT22;24037;49.536;8.500;2023-07-20T13:30:17;27.10;99.90
38241;DHT22;24037;49.536;8.500;2023-07-20T13:32:44;27.10;99.90
38241;DHT22;24037;49.536;8.500;2023-07-20T13:35:11;27.20;99.90
38241;DHT22;24037;49.536;8.500;2023-07-20T13:37:37;27.00;99.90
38241;DHT22;24037;49.536;8.500;2023-07-20T13:40:04;26.80;99.90
38241;DHT22;24037;49.536;8.500;2023-07-20T13:42:32;26.80;99.90
38241;DHT22;24037;49.536;8.500;2023-07-20T13:44:58;27.00;99.90
38241;DHT22;24037;49.536;8.500;2023-07-20T13:47:26;26.90;99.90
38241;DHT22;24037;49.536;8.500;2023-07-20T13:49:52;26.80;99.90
38241;DHT22;24037;49.536;8.500;2023-07-20T13:52:18;26.80;99.20
38241;DHT22;24037;49.536;8.500;2023-07-20T13:54:44;27.10;99.90
38241;DHT22;24037;49.536;8.500;2023-07-20T13:57:10;27.70;99.90
38241;DHT22;24037;49.536;8.500;2023-07-20T13:59:37;27.70;97.00
38241;DHT22;24037;49.536;8.500;2023-07-20T14:02:03;27.70;98.40
38241;DHT22;24037;49.536;8.500;2023-07-20T14:04:29;27.70;95.00
38241;DHT22;24037;49.536;8.500;2023-07-20T14:06:55;27.70;95.20
38241;DHT22;24037;49.536;8.500;2023-07-20T14:09:22;28.10;92.30
38241;DHT22;24037;49.536;8.500;2023-07-20T14:11:48;27.60;89.80
38241;DHT22;24037;49.536;8.500;2023-07-20T14:14:14;27.10;97.60
38241;DHT22;24037;49.536;8.500;2023-07-20T14:16:41;26.70;99.90
38241;DHT22;24037;49.536;8.500;2023-07-20T14:19:07;26.60;99.90
38241;DHT22;24037;49.536;8.500;2023-07-20T14:21:33;26.20;99.90
38241;DHT22;24037;49.536;8.500;2023-07-20T14:23:59;26.10;99.90
38241;DHT22;24037;49.536;8.500;2023-07-20T14:26:25;26.00;99.90
38241;DHT22;24037;49.536;8.500;2023-07-20T14:28:52;26.20;99.90
38241;DHT22;24037;49.536;8.500;2023-07-20T14:31:18;26.30;99.90
38241;DHT22;24037;49.536;8.500;2023-07-20T14:33:47;26.10;99.90
38241;DHT22;24037;49.536;8.500;2023-07-20T14:36:13;25.90;99.90
38241;DHT22;24037;49.536;8.500;2023-07-20T14:38:39;25.70;99.90
38241;DHT22;24037;49.536;8.500;2023-07-20T14:41:06;26.00;99.90
38241;DHT22;24037;49.536;8.500;2023-07-20T14:43:33;26.30;99.90
38241;DHT22;24037;49.536;8.500;2023-07-20T14:45:59;26.50;99.90
38241;DHT22;24037;49.536;8.500;2023-07-20T14:48:25;26.60;99.90
38241;DHT22;24037;49.536;8.500;2023-07-20T14:50:51;26.50;99.90
38241;DHT22;24037;49.536;8.500;2023-07-20T14:53:17;26.30;99.90
38241;DHT22;24037;49.536;8.500;2023-07-20T14:55:43;26.00;99.90
38241;DHT22;24037;49.536;8.500;2023-07-20T14:58:10;26.10;99.90
38241;DHT22;24037;49.536;8.500;2023-07-20T15:00:37;26.40;99.90
38241;DHT22;24037;49.536;8.500;2023-07-20T15:03:03;26.40;99.90
38241;DHT22;24037;49.536;8.500;2023-07-20T15:05:30;26.20;99.90
38241;DHT22;24037;49.536;8.500;2023-07-20T15:07:56;26.10;99.90
38241;DHT22;24037;49.536;8.500;2023-07-20T15:10:23;26.00;99.90
38241;DHT22;24037;49.536;8.500;2023-07-20T15:12:50;26.00;99.90
38241;DHT22;24037;49.536;8.500;2023-07-20T15:15:16;25.90;99.90
38241;DHT22;24037;49.536;8.500;2023-07-20T15:17:44;25.70;99.90
38241;DHT22;24037;49.536;8.500;2023-07-20T15:20:12;25.50;99.90
38241;DHT22;24037;49.536;8.500;2023-07-20T15:22:39;25.60;99.90
38241;DHT22;24037;49.536;8.500;2023-07-20T15:25:07;25.60;99.90
38241;DHT22;24037;49.536;8.500;2023-07-20T15:27:34;25.60;99.90
38241;DHT22;24037;49.536;8.500;2023-07-20T15:30:00;25.80;99.90
38241;DHT22;24037;49.536;8.500;2023-07-20T15:32:26;25.90;99.90
38241;DHT22;24037;49.536;8.500;2023-07-20T15:34:52;25.80;99.90
38241;DHT22;24037;49.536;8.500;2023-07-20T15:37:19;25.90;99.90
38241;DHT22;24037;49.536;8.500;2023-07-20T15:39:48;25.80;99.90
38241;DHT22;24037;49.536;8.500;2023-07-20T15:42:15;26.00;99.90
38241;DHT22;24037;49.536;8.500;2023-07-20T15:44:41;26.00;99.90
38241;DHT22;24037;49.536;8.500;2023-07-20T15:47:07;25.90;99.90
38241;DHT22;24037;49.536;8.500;2023-07-20T15:49:34;25.60;99.90
38241;DHT22;24037;49.536;8.500;2023-07-20T15:52:00;25.80;99.90